createdAt,value
2022-10-31T00:03:14.897Z,10.60
2022-10-31T00:08:19.195Z,10.60
2022-10-31T00:13:23.879Z,10.50
2022-10-31T00:18:27.205Z,10.50
2022-10-31T00:23:30.808Z,10.30
2022-10-31T00:28:36.166Z,10.30
2022-10-31T00:33:41.412Z,10.20
2022-10-31T00:38:45.522Z,10.10
2022-10-31T00:43:50.276Z,10.10
2022-10-31T00:48:53.729Z,10.10
2022-10-31T00:53:57.073Z,10.00
2022-10-31T00:59:01.854Z,9.80
2022-10-31T01:04:05.376Z,9.70
2022-10-31T01:09:09.687Z,9.70
2022-10-31T01:14:14.483Z,9.60
2022-10-31T01:19:17.897Z,9.50
2022-10-31T01:24:21.223Z,9.50
2022-10-31T01:29:26.049Z,9.50
2022-10-31T01:34:29.496Z,9.50
2022-10-31T01:39:32.893Z,9.50
2022-10-31T01:45:12.125Z,9.30
2022-10-31T01:50:23.961Z,9.40
2022-10-31T01:55:30.521Z,9.20
2022-10-31T02:00:35.642Z,9.10
2022-10-31T02:05:39.394Z,9.20
2022-10-31T02:10:44.593Z,9.30
2022-10-31T02:15:52.076Z,9.50
2022-10-31T02:21:02.936Z,9.50
2022-10-31T02:26:38.428Z,9.60
2022-10-31T02:31:48.663Z,9.80
2022-10-31T02:36:59.104Z,9.70
2022-10-31T02:42:09.992Z,9.60
2022-10-31T02:47:18.489Z,9.50
2022-10-31T02:52:23.632Z,9.50
2022-10-31T02:57:30.309Z,9.40
2022-10-31T03:02:54.944Z,9.40
2022-10-31T03:08:05.329Z,9.30
2022-10-31T03:13:13.887Z,9.20
2022-10-31T03:18:28.033Z,9.30
2022-10-31T03:23:34.255Z,9.40
2022-10-31T03:28:43.225Z,9.20
2022-10-31T03:33:51.819Z,9.30
2022-10-31T03:38:56.343Z,9.20
2022-10-31T03:44:03.912Z,9.10
2022-10-31T03:49:08.703Z,9.20
2022-10-31T03:54:17.957Z,9.20
2022-10-31T03:59:26.613Z,9.20
2022-10-31T04:04:32.070Z,9.20
2022-10-31T04:09:38.833Z,9.10
2022-10-31T04:14:43.658Z,9.10
2022-10-31T04:19:48.386Z,9.10
2022-10-31T04:24:51.783Z,9.20
2022-10-31T04:29:55.398Z,9.00
2022-10-31T04:35:00.086Z,9.00
2022-10-31T04:40:06.398Z,8.90
2022-10-31T04:45:28.037Z,9.00
2022-10-31T04:50:33.095Z,9.10
2022-10-31T04:55:38.103Z,9.30
2022-10-31T05:00:57.368Z,9.40
2022-10-31T05:06:02.185Z,9.40
2022-10-31T05:11:07.447Z,9.40
2022-10-31T05:16:11.207Z,9.40
2022-10-31T05:21:36.188Z,9.40
2022-10-31T05:26:40.463Z,9.30
2022-10-31T05:31:43.797Z,9.50
2022-10-31T05:37:08.404Z,9.50
2022-10-31T05:42:12.269Z,9.30
2022-10-31T05:47:15.536Z,9.40
2022-10-31T05:52:39.025Z,9.40
2022-10-31T05:57:57.662Z,9.30
2022-10-31T06:03:02.053Z,9.10
2022-10-31T06:08:39.246Z,9.10
2022-10-31T06:13:47.714Z,9.10
2022-10-31T06:18:57.044Z,8.70
2022-10-31T06:24:01.759Z,10.70
2022-10-31T06:29:28.202Z,9.20
2022-10-31T06:34:49.159Z,9.00
2022-10-31T06:39:54.171Z,8.80
2022-10-31T06:44:57.650Z,8.90
2022-10-31T06:50:19.188Z,8.80
2022-10-31T06:55:26.105Z,8.80
2022-10-31T07:00:31.484Z,8.90
2022-10-31T07:05:44.231Z,9.00
2022-10-31T07:10:54.706Z,9.00
2022-10-31T07:16:03.008Z,8.90
2022-10-31T07:21:08.088Z,9.10
2022-10-31T07:26:13.521Z,9.30
2022-10-31T07:31:21.709Z,9.60
2022-10-31T07:36:25.306Z,9.80
2022-10-31T07:41:32.161Z,9.90
2022-10-31T07:46:35.874Z,9.80
2022-10-31T07:51:57.710Z,9.70
2022-10-31T07:57:24.162Z,9.80
2022-10-31T08:02:28.471Z,10.30
2022-10-31T08:07:32.239Z,10.40
2022-10-31T08:12:42.600Z,10.50
2022-10-31T08:17:45.927Z,14.60
2022-10-31T08:22:56.355Z,10.70
2022-10-31T08:28:01.223Z,11.10
2022-10-31T08:33:05.760Z,11.00
2022-10-31T08:38:37.899Z,10.90
2022-10-31T08:43:43.432Z,11.10
2022-10-31T08:48:49.646Z,11.10
2022-10-31T08:53:54.217Z,11.00
2022-10-31T08:59:03.415Z,10.60
2022-10-31T09:04:32.692Z,10.70
2022-10-31T09:09:37.494Z,11.00
2022-10-31T09:14:42.358Z,12.90
2022-10-31T09:20:24.211Z,11.20
2022-10-31T09:25:29.727Z,11.20
2022-10-31T09:31:09.548Z,11.50
2022-10-31T09:36:27.142Z,11.80
2022-10-31T09:41:41.979Z,11.10
2022-10-31T09:46:57.847Z,11.40
2022-10-31T09:52:07.559Z,11.70
2022-10-31T09:57:14.643Z,11.90
2022-10-31T10:02:26.573Z,12.90
2022-10-31T10:07:41.120Z,12.50
2022-10-31T10:13:29.987Z,12.30
2022-10-31T10:18:47.067Z,12.60
2022-10-31T10:24:01.256Z,12.70
2022-10-31T10:29:13.591Z,12.80
2022-10-31T10:34:23.323Z,12.80
2022-10-31T10:39:31.959Z,13.10
2022-10-31T10:44:53.153Z,13.00
2022-10-31T10:49:58.123Z,13.10
2022-10-31T10:55:07.094Z,13.20
2022-10-31T11:00:20.390Z,13.50
2022-10-31T11:05:35.489Z,13.60
2022-10-31T11:10:39.384Z,13.70
2022-10-31T11:15:55.938Z,13.30
2022-10-31T11:21:03.780Z,13.50
2022-10-31T11:26:18.644Z,12.80
2022-10-31T11:31:22.100Z,12.60
2022-10-31T11:36:29.264Z,13.10
2022-10-31T11:41:34.824Z,13.30
2022-10-31T11:46:40.497Z,13.40
2022-10-31T11:51:49.838Z,13.60
2022-10-31T11:56:53.956Z,13.50
2022-10-31T12:01:59.716Z,13.40
2022-10-31T12:07:04.834Z,13.40
2022-10-31T12:12:33.163Z,13.50
2022-10-31T12:17:45.849Z,13.50
2022-10-31T12:22:59.643Z,13.60
2022-10-31T12:28:15.725Z,13.80
2022-10-31T12:33:49.600Z,13.90
2022-10-31T12:39:29.435Z,14.10
2022-10-31T12:44:59.251Z,13.70
2022-10-31T12:50:13.505Z,13.60
2022-10-31T12:55:45.568Z,13.70
2022-10-31T13:00:53.901Z,13.40
2022-10-31T13:06:01.212Z,13.40
2022-10-31T13:11:11.997Z,13.40
2022-10-31T13:16:20.820Z,12.90
2022-10-31T13:21:27.331Z,13.10
2022-10-31T13:26:39.511Z,12.60
2022-10-31T13:31:43.680Z,12.50
2022-10-31T13:36:55.626Z,12.40
2022-10-31T13:42:05.432Z,12.30
2022-10-31T13:47:26.040Z,12.60
2022-10-31T13:52:30.205Z,13.10
2022-10-31T13:57:41.156Z,12.50
2022-10-31T14:02:50.720Z,12.80
2022-10-31T14:07:55.589Z,12.60
2022-10-31T14:13:09.440Z,12.50
2022-10-31T14:18:24.658Z,12.60
2022-10-31T14:23:50.908Z,12.90
2022-10-31T14:29:00.087Z,13.00
2022-10-31T14:34:08.627Z,13.10
2022-10-31T14:39:20.096Z,13.20
2022-10-31T14:44:49.616Z,13.80
2022-10-31T14:50:19.288Z,14.20
2022-10-31T14:55:23.630Z,13.40
2022-10-31T15:00:30.879Z,13.10
2022-10-31T15:05:35.301Z,13.10
2022-10-31T15:10:40.584Z,13.20
2022-10-31T15:15:51.194Z,13.20
2022-10-31T15:20:57.211Z,13.10
2022-10-31T15:26:01.770Z,13.00
2022-10-31T15:31:06.834Z,12.90
2022-10-31T15:36:24.098Z,12.70
2022-10-31T15:41:36.600Z,12.80
2022-10-31T15:46:41.525Z,12.70
2022-10-31T15:51:44.906Z,12.50
2022-10-31T15:56:48.321Z,12.40
2022-10-31T16:02:03.292Z,12.30
2022-10-31T16:07:22.662Z,12.20
2022-10-31T16:12:36.006Z,12.20
2022-10-31T16:17:45.132Z,12.30
2022-10-31T16:22:52.203Z,12.10
2022-10-31T16:27:58.660Z,11.90
2022-10-31T16:33:03.620Z,11.80
2022-10-31T16:38:07.885Z,15.20
2022-10-31T16:43:15.554Z,11.50
2022-10-31T16:48:23.585Z,11.40
2022-10-31T16:59:10.952Z,11.30
2022-10-31T17:04:19.514Z,11.30
2022-10-31T17:09:23.136Z,11.30
2022-10-31T17:14:26.896Z,11.20
2022-10-31T17:19:31.633Z,11.10
2022-10-31T17:24:35.086Z,11.10
2022-10-31T17:29:38.515Z,11.10
2022-10-31T17:34:44.082Z,11.00
2022-10-31T17:39:48.827Z,11.00
2022-10-31T17:44:52.470Z,11.00
2022-10-31T17:49:57.279Z,10.80
2022-10-31T17:55:00.554Z,10.70
2022-10-31T18:00:04.871Z,13.30
2022-10-31T18:05:11.107Z,10.50
2022-10-31T18:10:14.464Z,10.40
2022-10-31T18:15:18.295Z,10.40
2022-10-31T18:20:23.384Z,10.40
2022-10-31T18:25:26.646Z,10.40
2022-10-31T18:30:29.939Z,10.20
2022-10-31T18:35:36.977Z,10.10
2022-10-31T18:40:40.551Z,10.10
2022-10-31T18:45:49.439Z,10.10
2022-10-31T18:50:58.036Z,10.00
2022-10-31T18:56:02.007Z,9.80
2022-10-31T19:01:08.527Z,9.70
2022-10-31T19:06:13.608Z,9.70
2022-10-31T19:11:17.037Z,9.60
2022-10-31T19:16:20.481Z,9.40
2022-10-31T19:21:26.291Z,9.30
2022-10-31T19:26:30.533Z,9.30
2022-10-31T19:31:34.679Z,9.20
2022-10-31T19:36:41.134Z,9.20
2022-10-31T19:41:45.250Z,9.20
2022-10-31T19:46:53.440Z,9.10
2022-10-31T19:51:59.549Z,9.10
2022-10-31T19:57:03.938Z,9.20
2022-10-31T20:02:08.077Z,9.10
2022-10-31T20:07:13.896Z,9.00
2022-10-31T20:12:17.781Z,8.90
2022-10-31T20:17:22.050Z,8.90
2022-10-31T20:22:27.480Z,8.90
2022-10-31T20:27:31.994Z,8.80
2022-10-31T20:32:36.022Z,8.80
2022-10-31T20:37:42.216Z,8.80
2022-10-31T20:42:46.081Z,8.70
2022-10-31T20:47:49.859Z,8.80
2022-10-31T20:52:55.125Z,8.80
2022-10-31T20:57:58.984Z,8.70
2022-10-31T21:03:02.462Z,8.60
2022-10-31T21:08:07.859Z,8.60
2022-10-31T21:13:11.181Z,8.60
2022-10-31T21:18:15.387Z,8.60
2022-10-31T21:23:20.182Z,8.60
2022-10-31T21:28:23.512Z,8.50
2022-10-31T21:33:26.768Z,8.50
2022-10-31T21:38:31.451Z,8.50
2022-10-31T21:43:37.017Z,8.40
2022-10-31T21:48:42.237Z,8.50
2022-10-31T21:54:04.770Z,8.40
2022-10-31T21:59:08.586Z,8.40
2022-10-31T22:04:12.095Z,8.40
2022-10-31T22:09:18.859Z,8.40
2022-10-31T22:14:22.110Z,8.40
2022-10-31T22:19:25.399Z,8.30
2022-10-31T22:24:30.068Z,8.30
2022-10-31T22:29:35.127Z,8.40
2022-10-31T22:34:38.412Z,8.30
2022-10-31T22:39:43.806Z,8.40
2022-10-31T22:44:47.374Z,8.60
2022-10-31T22:49:51.278Z,8.60
2022-10-31T22:54:58.469Z,8.60
2022-10-31T23:00:02.679Z,8.50
2022-10-31T23:05:06.562Z,8.50
2022-10-31T23:10:11.643Z,8.50
2022-10-31T23:15:14.984Z,8.60
2022-10-31T23:20:18.347Z,8.70
2022-10-31T23:25:40.683Z,8.80
2022-10-31T23:30:46.857Z,8.80
2022-10-31T23:35:50.326Z,8.90
2022-10-31T23:40:55.170Z,9.00
2022-10-31T23:45:58.730Z,9.10
2022-10-31T23:51:02.270Z,9.00
2022-10-31T23:56:07.807Z,8.80
